sensor_id;sensor_type;location;lat;lon;timestamp;P1;durP1;ratioP1;P2;durP2;ratioP2
56419;SDS011;42323;52.170;7.538;2022-12-18T00:02:23;7.28;;;6.80;;
56419;SDS011;42323;52.170;7.538;2022-12-18T00:04:49;9.90;;;8.95;;
56419;SDS011;42323;52.170;7.538;2022-12-18T00:07:16;9.55;;;5.15;;
56419;SDS011;42323;52.170;7.538;2022-12-18T00:09:43;5.45;;;5.03;;
56419;SDS011;42323;52.170;7.538;2022-12-18T00:12:10;6.20;;;5.72;;
56419;SDS011;42323;52.170;7.538;2022-12-18T00:14:43;12.32;;;6.85;;
56419;SDS011;42323;52.170;7.538;2022-12-18T00:17:10;9.73;;;8.93;;
56419;SDS011;42323;52.170;7.538;2022-12-18T00:19:37;35.15;;;13.68;;
56419;SDS011;42323;52.170;7.538;2022-12-18T00:22:03;7.95;;;7.15;;
56419;SDS011;42323;52.170;7.538;2022-12-18T00:24:31;5.40;;;4.90;;
56419;SDS011;42323;52.170;7.538;2022-12-18T00:26:58;5.72;;;5.28;;
56419;SDS011;42323;52.170;7.538;2022-12-18T00:29:24;8.18;;;7.43;;
56419;SDS011;42323;52.170;7.538;2022-12-18T00:31:51;25.70;;;12.20;;
56419;SDS011;42323;52.170;7.538;2022-12-18T00:34:18;6.70;;;6.30;;
56419;SDS011;42323;52.170;7.538;2022-12-18T00:36:46;26.38;;;14.93;;
56419;SDS011;42323;52.170;7.538;2022-12-18T00:39:13;8.30;;;5.18;;
56419;SDS011;42323;52.170;7.538;2022-12-18T00:41:40;4.25;;;4.05;;
56419;SDS011;42323;52.170;7.538;2022-12-18T01:03:19;10.18;;;9.45;;
56419;SDS011;42323;52.170;7.538;2022-12-18T01:05:46;4.20;;;3.90;;
56419;SDS011;42323;52.170;7.538;2022-12-18T01:08:13;28.63;;;14.88;;
56419;SDS011;42323;52.170;7.538;2022-12-18T01:10:40;7.22;;;6.53;;
56419;SDS011;42323;52.170;7.538;2022-12-18T01:13:07;5.90;;;5.43;;
56419;SDS011;42323;52.170;7.538;2022-12-18T01:15:36;5.82;;;5.53;;
56419;SDS011;42323;52.170;7.538;2022-12-18T01:18:03;4.65;;;4.45;;
56419;SDS011;42323;52.170;7.538;2022-12-18T01:20:31;6.72;;;6.28;;
56419;SDS011;42323;52.170;7.538;2022-12-18T01:50:12;4.03;;;3.83;;
56419;SDS011;42323;52.170;7.538;2022-12-18T01:52:42;17.05;;;5.93;;
56419;SDS011;42323;52.170;7.538;2022-12-18T01:55:13;5.47;;;5.18;;
56419;SDS011;42323;52.170;7.538;2022-12-18T01:57:42;13.35;;;7.70;;
56419;SDS011;42323;52.170;7.538;2022-12-18T02:00:11;5.68;;;5.18;;
56419;SDS011;42323;52.170;7.538;2022-12-18T02:02:43;31.80;;;16.40;;
56419;SDS011;42323;52.170;7.538;2022-12-18T02:05:12;30.30;;;16.95;;
56419;SDS011;42323;52.170;7.538;2022-12-18T02:10:31;4.88;;;4.68;;
56419;SDS011;42323;52.170;7.538;2022-12-18T02:16:01;4.68;;;4.35;;
56419;SDS011;42323;52.170;7.538;2022-12-18T02:18:32;8.32;;;7.18;;
56419;SDS011;42323;52.170;7.538;2022-12-18T02:42:32;5.72;;;5.13;;
56419;SDS011;42323;52.170;7.538;2022-12-18T02:44:59;6.70;;;6.13;;
56419;SDS011;42323;52.170;7.538;2022-12-18T02:47:30;13.10;;;8.23;;
56419;SDS011;42323;52.170;7.538;2022-12-18T03:01:28;9.57;;;5.38;;
56419;SDS011;42323;52.170;7.538;2022-12-18T03:22:59;7.85;;;6.68;;
56419;SDS011;42323;52.170;7.538;2022-12-18T03:25:34;10.07;;;6.90;;
56419;SDS011;42323;52.170;7.538;2022-12-18T03:28:03;6.57;;;6.28;;
56419;SDS011;42323;52.170;7.538;2022-12-18T03:30:34;7.15;;;6.72;;
56419;SDS011;42323;52.170;7.538;2022-12-18T03:33:10;5.90;;;5.50;;
56419;SDS011;42323;52.170;7.538;2022-12-18T03:35:44;5.53;;;5.22;;
56419;SDS011;42323;52.170;7.538;2022-12-18T03:38:10;9.20;;;8.50;;
56419;SDS011;42323;52.170;7.538;2022-12-18T04:02:26;5.78;;;5.38;;
56419;SDS011;42323;52.170;7.538;2022-12-18T04:04:56;8.45;;;7.82;;
56419;SDS011;42323;52.170;7.538;2022-12-18T04:07:26;15.90;;;7.90;;
56419;SDS011;42323;52.170;7.538;2022-12-18T04:09:54;5.78;;;5.25;;
56419;SDS011;42323;52.170;7.538;2022-12-18T04:12:26;6.80;;;6.30;;
56419;SDS011;42323;52.170;7.538;2022-12-18T04:14:56;3.83;;;3.63;;
56419;SDS011;42323;52.170;7.538;2022-12-18T04:17:22;5.88;;;5.43;;
56419;SDS011;42323;52.170;7.538;2022-12-18T04:19:50;4.90;;;4.60;;
56419;SDS011;42323;52.170;7.538;2022-12-18T04:22:17;4.80;;;4.60;;
56419;SDS011;42323;52.170;7.538;2022-12-18T05:02:31;5.47;;;5.13;;
56419;SDS011;42323;52.170;7.538;2022-12-18T05:04:58;6.22;;;5.90;;
56419;SDS011;42323;52.170;7.538;2022-12-18T05:07:25;4.05;;;3.85;;
56419;SDS011;42323;52.170;7.538;2022-12-18T05:09:52;4.45;;;4.20;;
56419;SDS011;42323;52.170;7.538;2022-12-18T05:12:18;4.18;;;3.95;;
56419;SDS011;42323;52.170;7.538;2022-12-18T05:14:45;7.55;;;5.05;;
56419;SDS011;42323;52.170;7.538;2022-12-18T05:17:12;4.78;;;4.53;;
56419;SDS011;42323;52.170;7.538;2022-12-18T05:19:38;2.85;;;2.75;;
56419;SDS011;42323;52.170;7.538;2022-12-18T05:22:07;4.43;;;4.22;;
56419;SDS011;42323;52.170;7.538;2022-12-18T05:24:34;12.82;;;5.13;;
56419;SDS011;42323;52.170;7.538;2022-12-18T05:27:00;4.60;;;4.32;;
56419;SDS011;42323;52.170;7.538;2022-12-18T05:29:27;6.57;;;4.65;;
56419;SDS011;42323;52.170;7.538;2022-12-18T05:31:54;4.35;;;4.15;;
56419;SDS011;42323;52.170;7.538;2022-12-18T05:34:21;4.28;;;4.07;;
56419;SDS011;42323;52.170;7.538;2022-12-18T05:36:47;3.78;;;3.58;;
56419;SDS011;42323;52.170;7.538;2022-12-18T05:39:14;4.25;;;4.00;;
56419;SDS011;42323;52.170;7.538;2022-12-18T05:41:41;3.85;;;3.67;;
56419;SDS011;42323;52.170;7.538;2022-12-18T05:44:08;3.97;;;3.67;;
56419;SDS011;42323;52.170;7.538;2022-12-18T05:46:35;5.55;;;5.25;;
56419;SDS011;42323;52.170;7.538;2022-12-18T05:49:02;5.63;;;5.15;;
56419;SDS011;42323;52.170;7.538;2022-12-18T05:51:29;5.25;;;4.90;;
56419;SDS011;42323;52.170;7.538;2022-12-18T05:53:56;3.42;;;3.22;;
56419;SDS011;42323;52.170;7.538;2022-12-18T05:56:22;4.88;;;4.45;;
56419;SDS011;42323;52.170;7.538;2022-12-18T05:58:53;4.03;;;3.83;;
56419;SDS011;42323;52.170;7.538;2022-12-18T06:01:21;4.22;;;4.03;;
56419;SDS011;42323;52.170;7.538;2022-12-18T06:03:50;2.90;;;2.80;;
56419;SDS011;42323;52.170;7.538;2022-12-18T06:08:44;4.28;;;4.07;;
56419;SDS011;42323;52.170;7.538;2022-12-18T06:11:12;3.55;;;3.35;;
56419;SDS011;42323;52.170;7.538;2022-12-18T06:13:39;4.85;;;4.55;;
56419;SDS011;42323;52.170;7.538;2022-12-18T06:16:06;3.60;;;3.42;;
56419;SDS011;42323;52.170;7.538;2022-12-18T06:18:34;3.50;;;3.38;;
56419;SDS011;42323;52.170;7.538;2022-12-18T06:21:01;2.80;;;2.70;;
56419;SDS011;42323;52.170;7.538;2022-12-18T06:23:28;4.63;;;4.32;;
56419;SDS011;42323;52.170;7.538;2022-12-18T06:25:55;4.22;;;3.97;;
56419;SDS011;42323;52.170;7.538;2022-12-18T06:28:22;3.70;;;3.50;;
56419;SDS011;42323;52.170;7.538;2022-12-18T06:30:49;3.45;;;3.25;;
56419;SDS011;42323;52.170;7.538;2022-12-18T06:33:17;4.22;;;3.92;;
56419;SDS011;42323;52.170;7.538;2022-12-18T06:35:44;2.90;;;2.80;;
56419;SDS011;42323;52.170;7.538;2022-12-18T06:38:10;3.63;;;3.42;;
56419;SDS011;42323;52.170;7.538;2022-12-18T06:40:38;3.95;;;3.75;;
56419;SDS011;42323;52.170;7.538;2022-12-18T07:04:41;3.30;;;3.20;;
56419;SDS011;42323;52.170;7.538;2022-12-18T07:07:08;3.58;;;3.20;;
56419;SDS011;42323;52.170;7.538;2022-12-18T07:09:35;2.70;;;2.60;;
56419;SDS011;42323;52.170;7.538;2022-12-18T07:12:01;3.10;;;3.00;;
56419;SDS011;42323;52.170;7.538;2022-12-18T07:14:28;5.97;;;4.85;;
56419;SDS011;42323;52.170;7.538;2022-12-18T07:16:55;4.70;;;4.45;;
56419;SDS011;42323;52.170;7.538;2022-12-18T07:19:22;3.88;;;3.67;;
56419;SDS011;42323;52.170;7.538;2022-12-18T07:21:49;3.42;;;3.22;;
56419;SDS011;42323;52.170;7.538;2022-12-18T07:43:03;2.75;;;2.65;;
56419;SDS011;42323;52.170;7.538;2022-12-18T07:45:30;3.05;;;2.95;;
56419;SDS011;42323;52.170;7.538;2022-12-18T07:47:57;3.65;;;3.45;;
56419;SDS011;42323;52.170;7.538;2022-12-18T07:50:23;4.05;;;3.85;;
56419;SDS011;42323;52.170;7.538;2022-12-18T07:52:50;4.97;;;3.70;;
56419;SDS011;42323;52.170;7.538;2022-12-18T07:55:17;2.80;;;2.70;;
56419;SDS011;42323;52.170;7.538;2022-12-18T07:57:43;3.80;;;3.60;;
56419;SDS011;42323;52.170;7.538;2022-12-18T08:00:24;3.70;;;3.50;;
56419;SDS011;42323;52.170;7.538;2022-12-18T08:02:51;2.88;;;2.78;;
56419;SDS011;42323;52.170;7.538;2022-12-18T08:24:04;3.80;;;3.60;;
56419;SDS011;42323;52.170;7.538;2022-12-18T08:26:32;7.00;;;5.10;;
56419;SDS011;42323;52.170;7.538;2022-12-18T08:28:59;3.47;;;3.20;;
56419;SDS011;42323;52.170;7.538;2022-12-18T08:31:27;3.17;;;3.00;;
56419;SDS011;42323;52.170;7.538;2022-12-18T08:33:55;2.90;;;2.70;;
56419;SDS011;42323;52.170;7.538;2022-12-18T08:36:22;2.67;;;2.58;;
56419;SDS011;42323;52.170;7.538;2022-12-18T08:38:51;4.80;;;4.50;;
56419;SDS011;42323;52.170;7.538;2022-12-18T08:41:18;2.58;;;2.47;;
56419;SDS011;42323;52.170;7.538;2022-12-18T08:43:45;3.60;;;3.40;;
56419;SDS011;42323;52.170;7.538;2022-12-18T08:46:38;3.83;;;3.00;;
56419;SDS011;42323;52.170;7.538;2022-12-18T09:06:44;4.63;;;4.30;;
56419;SDS011;42323;52.170;7.538;2022-12-18T09:09:11;3.25;;;3.05;;
56419;SDS011;42323;52.170;7.538;2022-12-18T09:19:37;4.05;;;3.75;;
56419;SDS011;42323;52.170;7.538;2022-12-18T09:22:03;3.53;;;3.30;;
56419;SDS011;42323;52.170;7.538;2022-12-18T09:24:30;4.85;;;4.40;;
56419;SDS011;42323;52.170;7.538;2022-12-18T09:26:57;4.97;;;4.57;;
56419;SDS011;42323;52.170;7.538;2022-12-18T09:33:16;16.60;;;4.70;;
56419;SDS011;42323;52.170;7.538;2022-12-18T09:35:44;3.95;;;3.60;;
56419;SDS011;42323;52.170;7.538;2022-12-18T09:38:17;4.82;;;4.43;;
56419;SDS011;42323;52.170;7.538;2022-12-18T09:40:49;5.78;;;5.22;;
56419;SDS011;42323;52.170;7.538;2022-12-18T10:05:06;8.10;;;6.03;;
56419;SDS011;42323;52.170;7.538;2022-12-18T10:18:31;7.68;;;6.85;;
56419;SDS011;42323;52.170;7.538;2022-12-18T10:21:08;9.98;;;6.63;;
56419;SDS011;42323;52.170;7.538;2022-12-18T10:23:43;7.90;;;5.57;;
56419;SDS011;42323;52.170;7.538;2022-12-18T10:29:08;6.80;;;5.15;;
56419;SDS011;42323;52.170;7.538;2022-12-18T10:31:51;8.40;;;5.82;;
56419;SDS011;42323;52.170;7.538;2022-12-18T10:34:18;8.65;;;6.03;;
56419;SDS011;42323;52.170;7.538;2022-12-18T10:36:44;8.85;;;5.65;;
56419;SDS011;42323;52.170;7.538;2022-12-18T10:43:10;7.47;;;5.35;;
56419;SDS011;42323;52.170;7.538;2022-12-18T11:17:56;7.68;;;5.32;;
56419;SDS011;42323;52.170;7.538;2022-12-18T11:20:27;12.38;;;6.20;;
56419;SDS011;42323;52.170;7.538;2022-12-18T11:23:01;8.82;;;6.47;;
56419;SDS011;42323;52.170;7.538;2022-12-18T11:25:32;9.85;;;6.78;;
56419;SDS011;42323;52.170;7.538;2022-12-18T11:28:25;7.80;;;5.72;;
56419;SDS011;42323;52.170;7.538;2022-12-18T11:34:01;13.57;;;6.70;;
56419;SDS011;42323;52.170;7.538;2022-12-18T11:36:55;9.77;;;6.15;;
56419;SDS011;42323;52.170;7.538;2022-12-18T11:43:09;12.38;;;6.20;;
56419;SDS011;42323;52.170;7.538;2022-12-18T11:45:43;9.15;;;5.93;;
56419;SDS011;42323;52.170;7.538;2022-12-18T11:48:21;7.50;;;5.63;;
56419;SDS011;42323;52.170;7.538;2022-12-18T11:51:08;9.75;;;5.60;;
56419;SDS011;42323;52.170;7.538;2022-12-18T12:01:50;6.60;;;5.85;;
56419;SDS011;42323;52.170;7.538;2022-12-18T12:07:33;9.90;;;6.22;;
56419;SDS011;42323;52.170;7.538;2022-12-18T12:10:32;9.60;;;6.18;;
56419;SDS011;42323;52.170;7.538;2022-12-18T12:13:13;8.52;;;5.13;;
56419;SDS011;42323;52.170;7.538;2022-12-18T12:21:55;9.23;;;6.30;;
56419;SDS011;42323;52.170;7.538;2022-12-18T12:24:28;11.38;;;7.03;;
56419;SDS011;42323;52.170;7.538;2022-12-18T12:29:55;11.88;;;6.60;;
56419;SDS011;42323;52.170;7.538;2022-12-18T12:40:35;9.82;;;6.53;;
56419;SDS011;42323;52.170;7.538;2022-12-18T12:43:22;8.02;;;6.38;;
56419;SDS011;42323;52.170;7.538;2022-12-18T12:46:00;9.77;;;6.22;;
56419;SDS011;42323;52.170;7.538;2022-12-18T12:51:21;8.90;;;5.40;;
56419;SDS011;42323;52.170;7.538;2022-12-18T12:53:52;9.68;;;5.90;;
56419;SDS011;42323;52.170;7.538;2022-12-18T12:56:21;11.38;;;6.47;;
56419;SDS011;42323;52.170;7.538;2022-12-18T13:01:32;14.43;;;8.82;;
56419;SDS011;42323;52.170;7.538;2022-12-18T13:04:22;12.70;;;7.55;;
56419;SDS011;42323;52.170;7.538;2022-12-18T13:07:00;14.00;;;6.40;;
56419;SDS011;42323;52.170;7.538;2022-12-18T13:09:35;7.88;;;5.60;;
56419;SDS011;42323;52.170;7.538;2022-12-18T13:15:41;9.02;;;5.80;;
56419;SDS011;42323;52.170;7.538;2022-12-18T13:18:29;10.50;;;7.43;;
56419;SDS011;42323;52.170;7.538;2022-12-18T13:23:30;9.38;;;6.13;;
56419;SDS011;42323;52.170;7.538;2022-12-18T13:26:27;9.02;;;6.82;;
56419;SDS011;42323;52.170;7.538;2022-12-18T13:28:55;8.80;;;5.47;;
56419;SDS011;42323;52.170;7.538;2022-12-18T13:36:54;7.75;;;5.57;;
56419;SDS011;42323;52.170;7.538;2022-12-18T13:39:24;9.10;;;6.40;;
56419;SDS011;42323;52.170;7.538;2022-12-18T13:44:40;9.35;;;5.97;;
56419;SDS011;42323;52.170;7.538;2022-12-18T13:47:27;6.85;;;5.72;;
56419;SDS011;42323;52.170;7.538;2022-12-18T13:50:00;10.60;;;6.97;;
56419;SDS011;42323;52.170;7.538;2022-12-18T13:52:35;10.15;;;5.90;;
56419;SDS011;42323;52.170;7.538;2022-12-18T13:55:07;8.40;;;6.00;;
56419;SDS011;42323;52.170;7.538;2022-12-18T13:57:42;8.02;;;5.82;;
56419;SDS011;42323;52.170;7.538;2022-12-18T14:02:49;11.60;;;5.47;;
56419;SDS011;42323;52.170;7.538;2022-12-18T14:10:21;8.25;;;5.78;;
56419;SDS011;42323;52.170;7.538;2022-12-18T14:13:09;8.63;;;5.72;;
56419;SDS011;42323;52.170;7.538;2022-12-18T14:15:43;9.90;;;6.43;;
56419;SDS011;42323;52.170;7.538;2022-12-18T14:21:02;8.18;;;5.05;;
56419;SDS011;42323;52.170;7.538;2022-12-18T14:23:34;7.78;;;5.13;;
56419;SDS011;42323;52.170;7.538;2022-12-18T14:26:03;8.75;;;5.03;;
56419;SDS011;42323;52.170;7.538;2022-12-18T14:28:57;6.97;;;5.13;;
56419;SDS011;42323;52.170;7.538;2022-12-18T14:31:28;8.15;;;5.03;;
56419;SDS011;42323;52.170;7.538;2022-12-18T14:33:56;5.90;;;4.40;;
56419;SDS011;42323;52.170;7.538;2022-12-18T14:36:24;5.75;;;4.97;;
56419;SDS011;42323;52.170;7.538;2022-12-18T14:38:57;7.63;;;5.18;;
56419;SDS011;42323;52.170;7.538;2022-12-18T14:41:24;11.30;;;5.50;;
56419;SDS011;42323;52.170;7.538;2022-12-18T14:43:53;6.68;;;4.30;;
56419;SDS011;42323;52.170;7.538;2022-12-18T14:46:32;5.28;;;4.60;;
56419;SDS011;42323;52.170;7.538;2022-12-18T14:51:52;8.32;;;4.47;;
56419;SDS011;42323;52.170;7.538;2022-12-18T14:54:22;6.88;;;4.68;;
56419;SDS011;42323;52.170;7.538;2022-12-18T14:56:52;5.28;;;4.10;;
56419;SDS011;42323;52.170;7.538;2022-12-18T14:59:28;5.57;;;4.10;;
56419;SDS011;42323;52.170;7.538;2022-12-18T15:04:41;5.97;;;3.95;;
56419;SDS011;42323;52.170;7.538;2022-12-18T15:07:15;5.93;;;4.32;;
56419;SDS011;42323;52.170;7.538;2022-12-18T15:15:49;7.90;;;5.60;;
56419;SDS011;42323;52.170;7.538;2022-12-18T15:18:23;7.45;;;4.78;;
56419;SDS011;42323;52.170;7.538;2022-12-18T15:21:14;7.82;;;5.30;;
56419;SDS011;42323;52.170;7.538;2022-12-18T15:23:46;6.57;;;4.88;;
56419;SDS011;42323;52.170;7.538;2022-12-18T15:26:23;6.35;;;4.85;;
56419;SDS011;42323;52.170;7.538;2022-12-18T15:43:55;10.18;;;5.40;;
56419;SDS011;42323;52.170;7.538;2022-12-18T15:46:49;8.15;;;5.15;;
56419;SDS011;42323;52.170;7.538;2022-12-18T15:49:53;7.95;;;5.72;;
56419;SDS011;42323;52.170;7.538;2022-12-18T15:53:02;6.55;;;4.53;;
56419;SDS011;42323;52.170;7.538;2022-12-18T15:55:48;7.80;;;5.50;;
56419;SDS011;42323;52.170;7.538;2022-12-18T15:58:47;7.60;;;5.05;;
56419;SDS011;42323;52.170;7.538;2022-12-18T16:01:55;7.35;;;5.18;;
56419;SDS011;42323;52.170;7.538;2022-12-18T16:04:53;6.90;;;4.80;;
56419;SDS011;42323;52.170;7.538;2022-12-18T16:07:20;6.05;;;5.03;;
56419;SDS011;42323;52.170;7.538;2022-12-18T16:09:50;7.72;;;5.60;;
56419;SDS011;42323;52.170;7.538;2022-12-18T16:12:21;6.85;;;4.65;;
56419;SDS011;42323;52.170;7.538;2022-12-18T16:14:50;4.95;;;3.85;;
56419;SDS011;42323;52.170;7.538;2022-12-18T16:17:17;10.25;;;6.10;;
56419;SDS011;42323;52.170;7.538;2022-12-18T16:19:43;8.68;;;5.78;;
56419;SDS011;42323;52.170;7.538;2022-12-18T16:22:20;7.95;;;4.55;;
56419;SDS011;42323;52.170;7.538;2022-12-18T16:24:48;8.55;;;5.68;;
56419;SDS011;42323;52.170;7.538;2022-12-18T16:27:15;6.55;;;4.22;;
56419;SDS011;42323;52.170;7.538;2022-12-18T16:29:43;9.50;;;5.03;;
56419;SDS011;42323;52.170;7.538;2022-12-18T16:32:13;7.95;;;4.93;;
56419;SDS011;42323;52.170;7.538;2022-12-18T16:34:44;8.27;;;5.47;;
56419;SDS011;42323;52.170;7.538;2022-12-18T16:37:13;8.27;;;5.78;;
56419;SDS011;42323;52.170;7.538;2022-12-18T16:39:42;11.68;;;4.93;;
56419;SDS011;42323;52.170;7.538;2022-12-18T16:42:13;7.07;;;5.47;;
56419;SDS011;42323;52.170;7.538;2022-12-18T16:47:24;8.63;;;5.93;;
56419;SDS011;42323;52.170;7.538;2022-12-18T16:57:50;7.72;;;4.88;;
56419;SDS011;42323;52.170;7.538;2022-12-18T17:02:50;7.65;;;5.45;;
56419;SDS011;42323;52.170;7.538;2022-12-18T17:05:17;10.02;;;5.13;;
56419;SDS011;42323;52.170;7.538;2022-12-18T17:07:44;11.00;;;6.00;;
56419;SDS011;42323;52.170;7.538;2022-12-18T17:10:10;7.63;;;5.55;;
56419;SDS011;42323;52.170;7.538;2022-12-18T17:12:37;6.95;;;4.85;;
56419;SDS011;42323;52.170;7.538;2022-12-18T17:15:04;7.55;;;5.13;;
56419;SDS011;42323;52.170;7.538;2022-12-18T17:17:31;8.00;;;4.65;;
56419;SDS011;42323;52.170;7.538;2022-12-18T17:19:58;6.55;;;4.68;;
56419;SDS011;42323;52.170;7.538;2022-12-18T17:22:25;9.77;;;5.53;;
56419;SDS011;42323;52.170;7.538;2022-12-18T17:24:52;9.63;;;5.15;;
56419;SDS011;42323;52.170;7.538;2022-12-18T17:27:19;6.65;;;5.03;;
56419;SDS011;42323;52.170;7.538;2022-12-18T17:29:45;8.85;;;5.80;;
56419;SDS011;42323;52.170;7.538;2022-12-18T17:32:14;9.80;;;6.03;;
56419;SDS011;42323;52.170;7.538;2022-12-18T17:34:42;9.45;;;5.47;;
56419;SDS011;42323;52.170;7.538;2022-12-18T17:37:09;7.85;;;6.05;;
56419;SDS011;42323;52.170;7.538;2022-12-18T17:39:36;8.80;;;6.20;;
56419;SDS011;42323;52.170;7.538;2022-12-18T17:42:10;10.93;;;5.85;;
56419;SDS011;42323;52.170;7.538;2022-12-18T18:00:54;7.90;;;5.18;;
56419;SDS011;42323;52.170;7.538;2022-12-18T18:03:21;7.65;;;5.43;;
56419;SDS011;42323;52.170;7.538;2022-12-18T18:08:23;9.50;;;6.13;;
56419;SDS011;42323;52.170;7.538;2022-12-18T18:10:51;12.10;;;6.22;;
56419;SDS011;42323;52.170;7.538;2022-12-18T18:13:26;9.23;;;5.95;;
56419;SDS011;42323;52.170;7.538;2022-12-18T18:16:12;12.35;;;7.38;;
56419;SDS011;42323;52.170;7.538;2022-12-18T18:18:39;8.27;;;5.75;;
56419;SDS011;42323;52.170;7.538;2022-12-18T18:21:07;8.52;;;5.30;;
56419;SDS011;42323;52.170;7.538;2022-12-18T18:23:35;7.85;;;6.07;;
56419;SDS011;42323;52.170;7.538;2022-12-18T18:39:27;8.45;;;5.95;;
56419;SDS011;42323;52.170;7.538;2022-12-18T18:41:54;8.95;;;6.05;;
56419;SDS011;42323;52.170;7.538;2022-12-18T18:44:21;10.30;;;6.32;;
56419;SDS011;42323;52.170;7.538;2022-12-18T18:46:54;13.10;;;6.15;;
56419;SDS011;42323;52.170;7.538;2022-12-18T18:49:23;10.52;;;6.22;;
56419;SDS011;42323;52.170;7.538;2022-12-18T18:51:53;10.52;;;6.00;;
56419;SDS011;42323;52.170;7.538;2022-12-18T18:54:21;10.07;;;6.30;;
56419;SDS011;42323;52.170;7.538;2022-12-18T19:02:05;11.02;;;5.85;;
56419;SDS011;42323;52.170;7.538;2022-12-18T19:04:34;9.30;;;6.63;;
56419;SDS011;42323;52.170;7.538;2022-12-18T19:07:11;10.07;;;6.40;;
56419;SDS011;42323;52.170;7.538;2022-12-18T19:09:40;8.98;;;5.55;;
56419;SDS011;42323;52.170;7.538;2022-12-18T19:12:08;10.27;;;6.65;;
56419;SDS011;42323;52.170;7.538;2022-12-18T19:15:04;12.50;;;6.47;;
56419;SDS011;42323;52.170;7.538;2022-12-18T19:17:31;11.82;;;6.43;;
56419;SDS011;42323;52.170;7.538;2022-12-18T19:20:00;10.95;;;6.82;;
56419;SDS011;42323;52.170;7.538;2022-12-18T19:22:27;10.40;;;7.63;;
56419;SDS011;42323;52.170;7.538;2022-12-18T19:24:57;16.40;;;9.27;;
56419;SDS011;42323;52.170;7.538;2022-12-18T19:27:23;14.80;;;7.95;;
56419;SDS011;42323;52.170;7.538;2022-12-18T19:29:50;12.05;;;8.30;;
56419;SDS011;42323;52.170;7.538;2022-12-18T19:32:17;14.32;;;8.88;;
56419;SDS011;42323;52.170;7.538;2022-12-18T19:34:44;16.13;;;7.57;;
56419;SDS011;42323;52.170;7.538;2022-12-18T19:37:13;13.15;;;8.40;;
56419;SDS011;42323;52.170;7.538;2022-12-18T19:39:40;11.95;;;8.13;;
56419;SDS011;42323;52.170;7.538;2022-12-18T19:42:06;13.75;;;9.50;;
56419;SDS011;42323;52.170;7.538;2022-12-18T19:47:11;14.45;;;7.93;;
56419;SDS011;42323;52.170;7.538;2022-12-18T19:49:40;18.33;;;8.32;;
56419;SDS011;42323;52.170;7.538;2022-12-18T19:52:07;18.08;;;9.93;;
56419;SDS011;42323;52.170;7.538;2022-12-18T19:58:15;12.55;;;8.65;;
56419;SDS011;42323;52.170;7.538;2022-12-18T20:00:42;11.77;;;6.97;;
56419;SDS011;42323;52.170;7.538;2022-12-18T20:03:09;12.18;;;8.63;;
56419;SDS011;42323;52.170;7.538;2022-12-18T20:05:54;13.18;;;7.93;;
56419;SDS011;42323;52.170;7.538;2022-12-18T20:08:20;14.07;;;7.70;;
56419;SDS011;42323;52.170;7.538;2022-12-18T20:10:48;15.00;;;7.60;;
56419;SDS011;42323;52.170;7.538;2022-12-18T20:13:20;11.43;;;7.75;;
56419;SDS011;42323;52.170;7.538;2022-12-18T20:15:47;14.52;;;8.73;;
56419;SDS011;42323;52.170;7.538;2022-12-18T20:18:14;12.68;;;6.80;;
56419;SDS011;42323;52.170;7.538;2022-12-18T20:20:42;14.43;;;8.23;;
56419;SDS011;42323;52.170;7.538;2022-12-18T20:23:11;13.35;;;8.15;;
56419;SDS011;42323;52.170;7.538;2022-12-18T20:25:41;15.18;;;8.68;;
56419;SDS011;42323;52.170;7.538;2022-12-18T20:28:08;15.73;;;8.18;;
56419;SDS011;42323;52.170;7.538;2022-12-18T20:30:36;15.52;;;9.00;;
56419;SDS011;42323;52.170;7.538;2022-12-18T20:33:07;16.30;;;8.43;;
56419;SDS011;42323;52.170;7.538;2022-12-18T20:35:36;18.08;;;8.52;;
56419;SDS011;42323;52.170;7.538;2022-12-18T20:38:03;14.65;;;8.32;;
56419;SDS011;42323;52.170;7.538;2022-12-18T20:40:31;11.85;;;8.32;;
56419;SDS011;42323;52.170;7.538;2022-12-18T20:45:34;21.63;;;10.07;;
56419;SDS011;42323;52.170;7.538;2022-12-18T20:48:16;17.30;;;9.60;;
56419;SDS011;42323;52.170;7.538;2022-12-18T20:51:18;13.00;;;7.13;;
56419;SDS011;42323;52.170;7.538;2022-12-18T20:53:48;12.93;;;8.23;;
56419;SDS011;42323;52.170;7.538;2022-12-18T20:56:18;14.07;;;8.05;;
56419;SDS011;42323;52.170;7.538;2022-12-18T20:58:47;16.75;;;9.63;;
56419;SDS011;42323;52.170;7.538;2022-12-18T21:01:20;14.40;;;8.38;;
56419;SDS011;42323;52.170;7.538;2022-12-18T21:03:51;15.27;;;9.00;;
56419;SDS011;42323;52.170;7.538;2022-12-18T21:11:35;14.57;;;9.50;;
56419;SDS011;42323;52.170;7.538;2022-12-18T21:25:20;15.88;;;9.40;;
56419;SDS011;42323;52.170;7.538;2022-12-18T21:27:47;22.42;;;10.85;;
56419;SDS011;42323;52.170;7.538;2022-12-18T21:30:13;20.15;;;9.45;;
56419;SDS011;42323;52.170;7.538;2022-12-18T21:32:43;17.52;;;8.63;;
56419;SDS011;42323;52.170;7.538;2022-12-18T21:35:11;14.00;;;8.82;;
56419;SDS011;42323;52.170;7.538;2022-12-18T21:37:37;19.67;;;9.85;;
56419;SDS011;42323;52.170;7.538;2022-12-18T21:40:05;18.17;;;10.20;;
56419;SDS011;42323;52.170;7.538;2022-12-18T21:42:33;20.77;;;11.38;;
56419;SDS011;42323;52.170;7.538;2022-12-18T21:45:18;20.98;;;9.68;;
56419;SDS011;42323;52.170;7.538;2022-12-18T21:47:48;20.25;;;10.05;;
56419;SDS011;42323;52.170;7.538;2022-12-18T21:50:14;18.63;;;11.43;;
56419;SDS011;42323;52.170;7.538;2022-12-18T21:52:41;18.83;;;11.38;;
56419;SDS011;42323;52.170;7.538;2022-12-18T21:55:08;22.20;;;11.90;;
56419;SDS011;42323;52.170;7.538;2022-12-18T21:57:36;28.38;;;14.88;;
56419;SDS011;42323;52.170;7.538;2022-12-18T22:00:05;25.85;;;13.35;;
56419;SDS011;42323;52.170;7.538;2022-12-18T22:02:34;26.13;;;11.73;;
56419;SDS011;42323;52.170;7.538;2022-12-18T22:05:01;24.77;;;11.15;;
56419;SDS011;42323;52.170;7.538;2022-12-18T22:07:28;18.98;;;9.98;;
56419;SDS011;42323;52.170;7.538;2022-12-18T22:09:55;16.63;;;9.43;;
56419;SDS011;42323;52.170;7.538;2022-12-18T22:12:23;18.13;;;9.75;;
56419;SDS011;42323;52.170;7.538;2022-12-18T22:17:38;14.23;;;8.68;;
56419;SDS011;42323;52.170;7.538;2022-12-18T22:20:05;19.70;;;11.18;;
56419;SDS011;42323;52.170;7.538;2022-12-18T22:22:34;18.30;;;11.05;;
56419;SDS011;42323;52.170;7.538;2022-12-18T23:10:55;19.15;;;9.68;;
56419;SDS011;42323;52.170;7.538;2022-12-18T23:13:22;17.75;;;10.35;;
56419;SDS011;42323;52.170;7.538;2022-12-18T23:15:49;21.35;;;11.13;;
56419;SDS011;42323;52.170;7.538;2022-12-18T23:18:16;20.95;;;10.48;;
56419;SDS011;42323;52.170;7.538;2022-12-18T23:20:43;23.38;;;11.40;;
56419;SDS011;42323;52.170;7.538;2022-12-18T23:23:11;23.48;;;11.85;;
56419;SDS011;42323;52.170;7.538;2022-12-18T23:25:39;20.95;;;11.65;;
56419;SDS011;42323;52.170;7.538;2022-12-18T23:28:06;25.05;;;11.38;;
56419;SDS011;42323;52.170;7.538;2022-12-18T23:30:33;22.02;;;9.93;;
56419;SDS011;42323;52.170;7.538;2022-12-18T23:33:00;23.80;;;10.88;;
56419;SDS011;42323;52.170;7.538;2022-12-18T23:35:27;19.45;;;10.52;;
56419;SDS011;42323;52.170;7.538;2022-12-18T23:37:55;20.92;;;10.52;;
56419;SDS011;42323;52.170;7.538;2022-12-18T23:40:24;26.30;;;11.65;;
56419;SDS011;42323;52.170;7.538;2022-12-18T23:42:51;20.60;;;10.45;;
56419;SDS011;42323;52.170;7.538;2022-12-18T23:45:17;23.42;;;10.32;;
56419;SDS011;42323;52.170;7.538;2022-12-18T23:47:44;17.63;;;11.38;;
56419;SDS011;42323;52.170;7.538;2022-12-18T23:50:16;24.27;;;10.95;;
56419;SDS011;42323;52.170;7.538;2022-12-18T23:52:43;19.80;;;10.52;;
56419;SDS011;42323;52.170;7.538;2022-12-18T23:55:10;29.38;;;13.00;;
56419;SDS011;42323;52.170;7.538;2022-12-18T23:57:36;27.15;;;12.88;;
